Terminal Aerodrome Forecast
Issued by NWS Missoula, MT

Home | Current Version | Previous Version | Text Only | Print | Product List | Glossary On
Versions: 1 2 3 4 5 6 7 8 9 10 11 12 13 14 15 16 17
000
FTUS45 KMSO 251138
TAFBTM
TAF
KBTM 251138Z 2512/2612 15007KT P6SM BKN090
     FM252000 VRB06KT P6SM VCSH BKN070
     FM260000 32011KT P6SM -SHRA BKN050
     FM260400 15007KT P6SM BKN100=

USA.gov is the U.S. government's official web portal to all federal, state and local government web resources and services.